sensor_id;sensor_type;location;lat;lon;timestamp;P1;durP1;ratioP1;P2;durP2;ratioP2
66546;SDS011;53400;50.364;14.874;2023-07-31T00:00:13;9.60;;;3.15;;
66546;SDS011;53400;50.364;14.874;2023-07-31T00:02:59;9.60;;;3.05;;
66546;SDS011;53400;50.364;14.874;2023-07-31T00:05:25;10.32;;;3.70;;
66546;SDS011;53400;50.364;14.874;2023-07-31T00:07:51;9.50;;;3.30;;
66546;SDS011;53400;50.364;14.874;2023-07-31T00:10:17;7.50;;;3.10;;
66546;SDS011;53400;50.364;14.874;2023-07-31T00:12:44;7.85;;;3.58;;
66546;SDS011;53400;50.364;14.874;2023-07-31T00:15:12;7.20;;;3.20;;
66546;SDS011;53400;50.364;14.874;2023-07-31T00:17:38;10.35;;;3.10;;
66546;SDS011;53400;50.364;14.874;2023-07-31T00:20:05;6.07;;;2.80;;
66546;SDS011;53400;50.364;14.874;2023-07-31T00:22:31;9.10;;;3.13;;
66546;SDS011;53400;50.364;14.874;2023-07-31T00:24:57;10.43;;;2.85;;
66546;SDS011;53400;50.364;14.874;2023-07-31T00:27:23;7.88;;;2.95;;
66546;SDS011;53400;50.364;14.874;2023-07-31T00:29:49;6.72;;;3.10;;
66546;SDS011;53400;50.364;14.874;2023-07-31T00:32:16;8.15;;;3.47;;
66546;SDS011;53400;50.364;14.874;2023-07-31T00:34:42;8.02;;;2.95;;
66546;SDS011;53400;50.364;14.874;2023-07-31T00:37:08;7.75;;;2.92;;
66546;SDS011;53400;50.364;14.874;2023-07-31T00:39:34;12.00;;;3.40;;
66546;SDS011;53400;50.364;14.874;2023-07-31T00:42:01;6.95;;;3.35;;
66546;SDS011;53400;50.364;14.874;2023-07-31T00:44:27;8.02;;;3.38;;
66546;SDS011;53400;50.364;14.874;2023-07-31T00:46:53;9.23;;;3.60;;
66546;SDS011;53400;50.364;14.874;2023-07-31T00:49:22;9.82;;;2.92;;
66546;SDS011;53400;50.364;14.874;2023-07-31T00:51:48;8.25;;;3.53;;
66546;SDS011;53400;50.364;14.874;2023-07-31T00:54:15;10.55;;;3.20;;
66546;SDS011;53400;50.364;14.874;2023-07-31T00:56:40;8.65;;;3.38;;
66546;SDS011;53400;50.364;14.874;2023-07-31T00:59:09;7.07;;;3.20;;
66546;SDS011;53400;50.364;14.874;2023-07-31T01:01:35;8.32;;;3.50;;
66546;SDS011;53400;50.364;14.874;2023-07-31T01:04:01;9.52;;;3.22;;
66546;SDS011;53400;50.364;14.874;2023-07-31T01:06:30;9.25;;;3.22;;
66546;SDS011;53400;50.364;14.874;2023-07-31T01:09:02;9.82;;;3.90;;
66546;SDS011;53400;50.364;14.874;2023-07-31T01:11:30;7.28;;;3.05;;
66546;SDS011;53400;50.364;14.874;2023-07-31T01:13:58;9.13;;;3.45;;
66546;SDS011;53400;50.364;14.874;2023-07-31T01:16:25;8.57;;;3.22;;
66546;SDS011;53400;50.364;14.874;2023-07-31T01:18:51;7.13;;;3.38;;
66546;SDS011;53400;50.364;14.874;2023-07-31T01:21:34;8.32;;;2.88;;
66546;SDS011;53400;50.364;14.874;2023-07-31T01:24:22;6.43;;;2.90;;
66546;SDS011;53400;50.364;14.874;2023-07-31T01:26:55;8.13;;;2.83;;
66546;SDS011;53400;50.364;14.874;2023-07-31T01:29:25;8.40;;;3.15;;
66546;SDS011;53400;50.364;14.874;2023-07-31T01:31:57;8.05;;;3.80;;
66546;SDS011;53400;50.364;14.874;2023-07-31T01:34:27;7.93;;;3.10;;
66546;SDS011;53400;50.364;14.874;2023-07-31T01:36:55;7.47;;;3.30;;
66546;SDS011;53400;50.364;14.874;2023-07-31T01:39:21;5.80;;;3.05;;
66546;SDS011;53400;50.364;14.874;2023-07-31T01:41:47;10.05;;;3.30;;
66546;SDS011;53400;50.364;14.874;2023-07-31T01:44:14;10.23;;;3.53;;
66546;SDS011;53400;50.364;14.874;2023-07-31T01:46:40;8.40;;;3.58;;
66546;SDS011;53400;50.364;14.874;2023-07-31T01:49:06;7.47;;;3.17;;
66546;SDS011;53400;50.364;14.874;2023-07-31T01:51:32;8.80;;;3.70;;
66546;SDS011;53400;50.364;14.874;2023-07-31T01:54:00;8.63;;;3.80;;
66546;SDS011;53400;50.364;14.874;2023-07-31T01:56:26;7.40;;;3.17;;
66546;SDS011;53400;50.364;14.874;2023-07-31T01:58:52;7.50;;;3.47;;
66546;SDS011;53400;50.364;14.874;2023-07-31T02:01:19;9.40;;;3.42;;
66546;SDS011;53400;50.364;14.874;2023-07-31T02:03:45;7.80;;;3.03;;
66546;SDS011;53400;50.364;14.874;2023-07-31T02:06:11;8.05;;;3.63;;
66546;SDS011;53400;50.364;14.874;2023-07-31T02:08:37;7.18;;;3.10;;
66546;SDS011;53400;50.364;14.874;2023-07-31T02:11:03;9.75;;;3.15;;
66546;SDS011;53400;50.364;14.874;2023-07-31T02:13:29;8.23;;;3.47;;
66546;SDS011;53400;50.364;14.874;2023-07-31T02:15:55;7.53;;;3.30;;
66546;SDS011;53400;50.364;14.874;2023-07-31T02:18:22;7.05;;;3.20;;
66546;SDS011;53400;50.364;14.874;2023-07-31T02:20:49;6.82;;;3.35;;
66546;SDS011;53400;50.364;14.874;2023-07-31T02:23:15;6.57;;;3.15;;
66546;SDS011;53400;50.364;14.874;2023-07-31T02:25:41;7.45;;;3.47;;
66546;SDS011;53400;50.364;14.874;2023-07-31T02:28:07;7.60;;;3.20;;
66546;SDS011;53400;50.364;14.874;2023-07-31T02:30:33;8.88;;;3.25;;
66546;SDS011;53400;50.364;14.874;2023-07-31T02:32:59;6.82;;;3.40;;
66546;SDS011;53400;50.364;14.874;2023-07-31T02:35:26;9.48;;;3.58;;
66546;SDS011;53400;50.364;14.874;2023-07-31T02:37:52;10.35;;;5.20;;
66546;SDS011;53400;50.364;14.874;2023-07-31T02:40:18;8.48;;;3.45;;
66546;SDS011;53400;50.364;14.874;2023-07-31T02:42:45;7.45;;;3.47;;
66546;SDS011;53400;50.364;14.874;2023-07-31T02:45:10;8.38;;;3.63;;
66546;SDS011;53400;50.364;14.874;2023-07-31T02:47:37;9.68;;;3.38;;
66546;SDS011;53400;50.364;14.874;2023-07-31T02:50:03;8.27;;;3.22;;
66546;SDS011;53400;50.364;14.874;2023-07-31T02:52:31;10.10;;;3.65;;
66546;SDS011;53400;50.364;14.874;2023-07-31T02:54:57;9.25;;;3.55;;
66546;SDS011;53400;50.364;14.874;2023-07-31T02:57:24;8.93;;;3.63;;
66546;SDS011;53400;50.364;14.874;2023-07-31T02:59:49;7.72;;;3.00;;
66546;SDS011;53400;50.364;14.874;2023-07-31T03:02:15;7.38;;;3.13;;
66546;SDS011;53400;50.364;14.874;2023-07-31T03:04:41;9.98;;;3.20;;
66546;SDS011;53400;50.364;14.874;2023-07-31T03:07:07;9.30;;;3.22;;
66546;SDS011;53400;50.364;14.874;2023-07-31T03:09:34;7.32;;;3.25;;
66546;SDS011;53400;50.364;14.874;2023-07-31T03:12:01;9.15;;;3.40;;
66546;SDS011;53400;50.364;14.874;2023-07-31T03:14:26;8.75;;;3.30;;
66546;SDS011;53400;50.364;14.874;2023-07-31T03:16:53;7.25;;;3.20;;
66546;SDS011;53400;50.364;14.874;2023-07-31T03:19:19;7.68;;;3.20;;
66546;SDS011;53400;50.364;14.874;2023-07-31T03:21:45;7.60;;;3.33;;
66546;SDS011;53400;50.364;14.874;2023-07-31T03:24:11;7.30;;;3.15;;
66546;SDS011;53400;50.364;14.874;2023-07-31T03:26:39;9.55;;;3.53;;
66546;SDS011;53400;50.364;14.874;2023-07-31T03:29:07;7.35;;;3.08;;
66546;SDS011;53400;50.364;14.874;2023-07-31T03:31:33;8.45;;;3.25;;
66546;SDS011;53400;50.364;14.874;2023-07-31T03:33:59;8.85;;;3.22;;
66546;SDS011;53400;50.364;14.874;2023-07-31T03:36:25;8.43;;;3.22;;
66546;SDS011;53400;50.364;14.874;2023-07-31T03:38:51;5.95;;;2.90;;
66546;SDS011;53400;50.364;14.874;2023-07-31T03:41:17;7.82;;;3.30;;
66546;SDS011;53400;50.364;14.874;2023-07-31T03:43:45;8.98;;;4.05;;
66546;SDS011;53400;50.364;14.874;2023-07-31T03:46:11;8.05;;;2.80;;
66546;SDS011;53400;50.364;14.874;2023-07-31T03:48:37;6.55;;;3.05;;
66546;SDS011;53400;50.364;14.874;2023-07-31T03:51:03;7.72;;;2.92;;
66546;SDS011;53400;50.364;14.874;2023-07-31T03:53:29;7.63;;;3.10;;
66546;SDS011;53400;50.364;14.874;2023-07-31T03:55:55;6.07;;;2.65;;
66546;SDS011;53400;50.364;14.874;2023-07-31T03:58:21;8.07;;;3.17;;
66546;SDS011;53400;50.364;14.874;2023-07-31T04:00:48;9.18;;;3.22;;
66546;SDS011;53400;50.364;14.874;2023-07-31T04:03:14;7.82;;;3.35;;
66546;SDS011;53400;50.364;14.874;2023-07-31T04:05:40;6.32;;;3.22;;
66546;SDS011;53400;50.364;14.874;2023-07-31T04:08:06;9.35;;;3.17;;
66546;SDS011;53400;50.364;14.874;2023-07-31T04:10:32;9.85;;;3.05;;
66546;SDS011;53400;50.364;14.874;2023-07-31T04:12:58;9.25;;;3.30;;
66546;SDS011;53400;50.364;14.874;2023-07-31T04:15:25;8.25;;;2.78;;
66546;SDS011;53400;50.364;14.874;2023-07-31T04:17:52;7.32;;;2.83;;
66546;SDS011;53400;50.364;14.874;2023-07-31T04:20:18;8.43;;;2.80;;
66546;SDS011;53400;50.364;14.874;2023-07-31T04:22:43;7.40;;;3.30;;
66546;SDS011;53400;50.364;14.874;2023-07-31T04:25:09;8.85;;;3.17;;
66546;SDS011;53400;50.364;14.874;2023-07-31T04:27:35;8.43;;;3.53;;
66546;SDS011;53400;50.364;14.874;2023-07-31T04:30:01;7.40;;;3.17;;
66546;SDS011;53400;50.364;14.874;2023-07-31T04:32:27;8.55;;;3.42;;
66546;SDS011;53400;50.364;14.874;2023-07-31T04:34:56;7.35;;;3.47;;
66546;SDS011;53400;50.364;14.874;2023-07-31T04:37:22;9.95;;;3.50;;
66546;SDS011;53400;50.364;14.874;2023-07-31T04:39:48;7.07;;;3.30;;
66546;SDS011;53400;50.364;14.874;2023-07-31T04:42:14;8.15;;;3.17;;
66546;SDS011;53400;50.364;14.874;2023-07-31T04:44:40;9.20;;;3.50;;
66546;SDS011;53400;50.364;14.874;2023-07-31T04:47:06;8.50;;;3.10;;
66546;SDS011;53400;50.364;14.874;2023-07-31T04:49:32;6.65;;;3.22;;
66546;SDS011;53400;50.364;14.874;2023-07-31T04:51:59;6.70;;;2.95;;
66546;SDS011;53400;50.364;14.874;2023-07-31T04:54:25;7.80;;;3.30;;
66546;SDS011;53400;50.364;14.874;2023-07-31T04:56:51;10.23;;;3.40;;
66546;SDS011;53400;50.364;14.874;2023-07-31T04:59:18;9.05;;;3.00;;
66546;SDS011;53400;50.364;14.874;2023-07-31T05:01:44;8.02;;;3.55;;
66546;SDS011;53400;50.364;14.874;2023-07-31T05:04:12;10.38;;;3.00;;
66546;SDS011;53400;50.364;14.874;2023-07-31T05:06:38;7.70;;;3.45;;
66546;SDS011;53400;50.364;14.874;2023-07-31T05:09:05;7.40;;;2.90;;
66546;SDS011;53400;50.364;14.874;2023-07-31T05:11:31;8.40;;;3.80;;
66546;SDS011;53400;50.364;14.874;2023-07-31T05:13:58;7.65;;;3.38;;
66546;SDS011;53400;50.364;14.874;2023-07-31T05:16:23;8.32;;;3.30;;
66546;SDS011;53400;50.364;14.874;2023-07-31T05:18:49;5.97;;;3.22;;
66546;SDS011;53400;50.364;14.874;2023-07-31T05:21:15;9.10;;;3.28;;
66546;SDS011;53400;50.364;14.874;2023-07-31T05:23:41;8.13;;;3.30;;
66546;SDS011;53400;50.364;14.874;2023-07-31T05:26:08;7.88;;;3.17;;
66546;SDS011;53400;50.364;14.874;2023-07-31T05:28:37;8.30;;;3.25;;
66546;SDS011;53400;50.364;14.874;2023-07-31T05:31:03;6.13;;;2.47;;
66546;SDS011;53400;50.364;14.874;2023-07-31T05:33:31;8.85;;;3.28;;
66546;SDS011;53400;50.364;14.874;2023-07-31T05:35:57;7.75;;;2.92;;
66546;SDS011;53400;50.364;14.874;2023-07-31T05:38:23;8.57;;;3.25;;
66546;SDS011;53400;50.364;14.874;2023-07-31T05:40:48;7.93;;;3.28;;
66546;SDS011;53400;50.364;14.874;2023-07-31T05:43:16;8.18;;;3.13;;
66546;SDS011;53400;50.364;14.874;2023-07-31T05:45:42;6.75;;;3.13;;
66546;SDS011;53400;50.364;14.874;2023-07-31T05:48:09;7.22;;;3.00;;
66546;SDS011;53400;50.364;14.874;2023-07-31T05:50:34;7.90;;;3.05;;
66546;SDS011;53400;50.364;14.874;2023-07-31T05:53:00;8.70;;;3.10;;
66546;SDS011;53400;50.364;14.874;2023-07-31T05:55:27;8.75;;;3.33;;
66546;SDS011;53400;50.364;14.874;2023-07-31T05:57:53;7.43;;;3.17;;
66546;SDS011;53400;50.364;14.874;2023-07-31T06:00:21;6.68;;;3.10;;
66546;SDS011;53400;50.364;14.874;2023-07-31T06:02:47;6.53;;;2.90;;
66546;SDS011;53400;50.364;14.874;2023-07-31T06:05:13;7.03;;;3.25;;
66546;SDS011;53400;50.364;14.874;2023-07-31T06:07:40;7.30;;;3.03;;
66546;SDS011;53400;50.364;14.874;2023-07-31T06:10:06;8.63;;;3.00;;
66546;SDS011;53400;50.364;14.874;2023-07-31T06:12:33;6.95;;;3.10;;
66546;SDS011;53400;50.364;14.874;2023-07-31T06:15:00;5.72;;;2.60;;
66546;SDS011;53400;50.364;14.874;2023-07-31T06:17:27;8.23;;;2.90;;
66546;SDS011;53400;50.364;14.874;2023-07-31T06:19:54;6.85;;;2.90;;
66546;SDS011;53400;50.364;14.874;2023-07-31T06:22:20;7.30;;;2.65;;
66546;SDS011;53400;50.364;14.874;2023-07-31T06:24:46;7.97;;;3.13;;
66546;SDS011;53400;50.364;14.874;2023-07-31T06:27:12;6.75;;;2.90;;
66546;SDS011;53400;50.364;14.874;2023-07-31T06:29:38;6.28;;;3.03;;
66546;SDS011;53400;50.364;14.874;2023-07-31T06:32:04;9.30;;;3.00;;
66546;SDS011;53400;50.364;14.874;2023-07-31T06:34:31;8.38;;;2.92;;
66546;SDS011;53400;50.364;14.874;2023-07-31T06:36:57;8.13;;;2.53;;
66546;SDS011;53400;50.364;14.874;2023-07-31T06:39:23;7.85;;;2.97;;
66546;SDS011;53400;50.364;14.874;2023-07-31T06:41:50;8.65;;;2.75;;
66546;SDS011;53400;50.364;14.874;2023-07-31T06:44:16;7.97;;;2.58;;
66546;SDS011;53400;50.364;14.874;2023-07-31T06:46:42;6.45;;;2.58;;
66546;SDS011;53400;50.364;14.874;2023-07-31T06:49:08;9.35;;;2.95;;
66546;SDS011;53400;50.364;14.874;2023-07-31T06:51:35;7.90;;;2.60;;
66546;SDS011;53400;50.364;14.874;2023-07-31T06:54:03;7.75;;;2.63;;
66546;SDS011;53400;50.364;14.874;2023-07-31T06:56:29;8.60;;;2.60;;
66546;SDS011;53400;50.364;14.874;2023-07-31T06:58:55;5.78;;;2.30;;
66546;SDS011;53400;50.364;14.874;2023-07-31T07:01:21;8.10;;;2.50;;
66546;SDS011;53400;50.364;14.874;2023-07-31T07:03:47;7.95;;;2.72;;
66546;SDS011;53400;50.364;14.874;2023-07-31T07:06:16;6.40;;;2.80;;
66546;SDS011;53400;50.364;14.874;2023-07-31T07:08:43;8.48;;;2.67;;
66546;SDS011;53400;50.364;14.874;2023-07-31T07:11:09;5.63;;;2.72;;
66546;SDS011;53400;50.364;14.874;2023-07-31T07:13:35;7.85;;;2.72;;
66546;SDS011;53400;50.364;14.874;2023-07-31T07:16:04;7.28;;;2.70;;
66546;SDS011;53400;50.364;14.874;2023-07-31T07:18:30;8.88;;;2.80;;
66546;SDS011;53400;50.364;14.874;2023-07-31T07:20:56;7.88;;;2.80;;
66546;SDS011;53400;50.364;14.874;2023-07-31T07:23:23;5.90;;;2.53;;
66546;SDS011;53400;50.364;14.874;2023-07-31T07:25:51;7.45;;;2.58;;
66546;SDS011;53400;50.364;14.874;2023-07-31T07:28:16;5.65;;;2.50;;
66546;SDS011;53400;50.364;14.874;2023-07-31T07:30:42;7.65;;;3.00;;
66546;SDS011;53400;50.364;14.874;2023-07-31T07:33:08;6.85;;;2.65;;
66546;SDS011;53400;50.364;14.874;2023-07-31T07:35:34;8.45;;;2.63;;
66546;SDS011;53400;50.364;14.874;2023-07-31T07:38:02;7.97;;;2.50;;
66546;SDS011;53400;50.364;14.874;2023-07-31T07:40:29;6.43;;;2.78;;
66546;SDS011;53400;50.364;14.874;2023-07-31T07:42:56;7.97;;;2.10;;
66546;SDS011;53400;50.364;14.874;2023-07-31T07:45:22;5.43;;;2.50;;
66546;SDS011;53400;50.364;14.874;2023-07-31T07:47:48;5.50;;;2.45;;
66546;SDS011;53400;50.364;14.874;2023-07-31T07:50:14;5.53;;;2.33;;
66546;SDS011;53400;50.364;14.874;2023-07-31T07:52:39;5.93;;;2.20;;
66546;SDS011;53400;50.364;14.874;2023-07-31T07:55:06;8.07;;;2.25;;
66546;SDS011;53400;50.364;14.874;2023-07-31T07:57:32;6.93;;;2.40;;
66546;SDS011;53400;50.364;14.874;2023-07-31T08:00:00;6.25;;;2.22;;
66546;SDS011;53400;50.364;14.874;2023-07-31T08:02:25;6.63;;;2.33;;
66546;SDS011;53400;50.364;14.874;2023-07-31T08:04:51;7.88;;;2.47;;
66546;SDS011;53400;50.364;14.874;2023-07-31T08:07:17;7.18;;;2.42;;
66546;SDS011;53400;50.364;14.874;2023-07-31T08:09:43;8.57;;;2.50;;
66546;SDS011;53400;50.364;14.874;2023-07-31T08:12:09;6.45;;;2.35;;
66546;SDS011;53400;50.364;14.874;2023-07-31T08:14:35;8.40;;;2.67;;
66546;SDS011;53400;50.364;14.874;2023-07-31T08:17:02;7.63;;;2.50;;
66546;SDS011;53400;50.364;14.874;2023-07-31T08:19:29;8.40;;;2.85;;
66546;SDS011;53400;50.364;14.874;2023-07-31T08:21:55;8.00;;;2.90;;
66546;SDS011;53400;50.364;14.874;2023-07-31T08:24:21;9.13;;;2.47;;
66546;SDS011;53400;50.364;14.874;2023-07-31T08:26:47;6.45;;;2.60;;
66546;SDS011;53400;50.364;14.874;2023-07-31T08:29:14;5.18;;;2.38;;
66546;SDS011;53400;50.364;14.874;2023-07-31T08:31:39;6.18;;;2.47;;
66546;SDS011;53400;50.364;14.874;2023-07-31T08:34:07;6.95;;;2.58;;
66546;SDS011;53400;50.364;14.874;2023-07-31T08:36:33;6.63;;;2.45;;
66546;SDS011;53400;50.364;14.874;2023-07-31T08:38:59;7.53;;;2.80;;
66546;SDS011;53400;50.364;14.874;2023-07-31T08:41:25;7.18;;;2.45;;
66546;SDS011;53400;50.364;14.874;2023-07-31T08:43:51;6.43;;;2.50;;
66546;SDS011;53400;50.364;14.874;2023-07-31T08:46:18;7.63;;;2.83;;
66546;SDS011;53400;50.364;14.874;2023-07-31T08:48:46;8.35;;;2.83;;
66546;SDS011;53400;50.364;14.874;2023-07-31T08:51:14;6.32;;;2.60;;
66546;SDS011;53400;50.364;14.874;2023-07-31T08:53:41;7.88;;;2.50;;
66546;SDS011;53400;50.364;14.874;2023-07-31T08:56:06;7.47;;;2.53;;
66546;SDS011;53400;50.364;14.874;2023-07-31T08:58:33;6.25;;;2.30;;
66546;SDS011;53400;50.364;14.874;2023-07-31T09:01:03;7.25;;;2.40;;
66546;SDS011;53400;50.364;14.874;2023-07-31T09:03:31;7.18;;;2.90;;
66546;SDS011;53400;50.364;14.874;2023-07-31T09:06:00;7.93;;;2.60;;
66546;SDS011;53400;50.364;14.874;2023-07-31T09:08:30;6.28;;;2.67;;
66546;SDS011;53400;50.364;14.874;2023-07-31T09:10:58;8.45;;;2.50;;
66546;SDS011;53400;50.364;14.874;2023-07-31T09:13:25;8.35;;;2.65;;
66546;SDS011;53400;50.364;14.874;2023-07-31T09:15:53;7.97;;;2.65;;
66546;SDS011;53400;50.364;14.874;2023-07-31T09:18:19;7.63;;;2.60;;
66546;SDS011;53400;50.364;14.874;2023-07-31T09:21:00;7.13;;;2.85;;
66546;SDS011;53400;50.364;14.874;2023-07-31T09:23:27;7.25;;;2.60;;
66546;SDS011;53400;50.364;14.874;2023-07-31T09:26:07;8.75;;;2.80;;
66546;SDS011;53400;50.364;14.874;2023-07-31T09:28:33;8.60;;;2.53;;
66546;SDS011;53400;50.364;14.874;2023-07-31T09:30:59;6.32;;;2.40;;
66546;SDS011;53400;50.364;14.874;2023-07-31T09:33:25;6.68;;;2.55;;
66546;SDS011;53400;50.364;14.874;2023-07-31T09:35:52;6.05;;;2.80;;
66546;SDS011;53400;50.364;14.874;2023-07-31T09:38:18;6.53;;;2.92;;
66546;SDS011;53400;50.364;14.874;2023-07-31T09:40:45;6.07;;;2.55;;
66546;SDS011;53400;50.364;14.874;2023-07-31T09:43:13;7.15;;;2.70;;
66546;SDS011;53400;50.364;14.874;2023-07-31T09:45:42;6.40;;;2.50;;
66546;SDS011;53400;50.364;14.874;2023-07-31T09:48:09;5.57;;;2.40;;
66546;SDS011;53400;50.364;14.874;2023-07-31T09:50:36;8.32;;;2.78;;
66546;SDS011;53400;50.364;14.874;2023-07-31T09:53:04;8.75;;;2.90;;
66546;SDS011;53400;50.364;14.874;2023-07-31T09:55:30;6.88;;;2.63;;
66546;SDS011;53400;50.364;14.874;2023-07-31T09:58:02;6.82;;;2.55;;
66546;SDS011;53400;50.364;14.874;2023-07-31T10:00:30;7.00;;;2.40;;
66546;SDS011;53400;50.364;14.874;2023-07-31T10:02:58;5.68;;;2.17;;
66546;SDS011;53400;50.364;14.874;2023-07-31T10:05:25;8.00;;;2.53;;
66546;SDS011;53400;50.364;14.874;2023-07-31T10:07:55;5.82;;;2.47;;
66546;SDS011;53400;50.364;14.874;2023-07-31T10:10:22;6.55;;;2.40;;
66546;SDS011;53400;50.364;14.874;2023-07-31T10:12:50;7.22;;;2.65;;
66546;SDS011;53400;50.364;14.874;2023-07-31T10:15:21;6.13;;;2.30;;
66546;SDS011;53400;50.364;14.874;2023-07-31T10:17:48;7.43;;;2.47;;
66546;SDS011;53400;50.364;14.874;2023-07-31T10:20:14;8.43;;;2.50;;
66546;SDS011;53400;50.364;14.874;2023-07-31T10:22:44;6.82;;;2.75;;
66546;SDS011;53400;50.364;14.874;2023-07-31T10:25:11;7.28;;;2.55;;
66546;SDS011;53400;50.364;14.874;2023-07-31T10:27:38;5.35;;;2.40;;
66546;SDS011;53400;50.364;14.874;2023-07-31T10:30:05;8.25;;;2.60;;
66546;SDS011;53400;50.364;14.874;2023-07-31T10:32:35;7.32;;;2.60;;
66546;SDS011;53400;50.364;14.874;2023-07-31T10:35:03;7.13;;;2.55;;
66546;SDS011;53400;50.364;14.874;2023-07-31T10:37:35;7.15;;;2.50;;
66546;SDS011;53400;50.364;14.874;2023-07-31T10:40:04;7.68;;;2.42;;
66546;SDS011;53400;50.364;14.874;2023-07-31T10:42:32;5.60;;;2.50;;
66546;SDS011;53400;50.364;14.874;2023-07-31T10:45:00;6.38;;;2.60;;
66546;SDS011;53400;50.364;14.874;2023-07-31T10:47:28;7.97;;;2.97;;
66546;SDS011;53400;50.364;14.874;2023-07-31T10:52:39;5.78;;;2.50;;
66546;SDS011;53400;50.364;14.874;2023-07-31T10:55:15;6.78;;;2.75;;
66546;SDS011;53400;50.364;14.874;2023-07-31T10:57:47;5.93;;;2.58;;
66546;SDS011;53400;50.364;14.874;2023-07-31T11:00:20;7.00;;;2.20;;
66546;SDS011;53400;50.364;14.874;2023-07-31T11:03:01;7.32;;;2.47;;
66546;SDS011;53400;50.364;14.874;2023-07-31T11:05:50;4.47;;;2.17;;
66546;SDS011;53400;50.364;14.874;2023-07-31T11:08:19;7.20;;;2.53;;
66546;SDS011;53400;50.364;14.874;2023-07-31T11:10:47;6.10;;;2.28;;
66546;SDS011;53400;50.364;14.874;2023-07-31T11:13:15;7.10;;;2.58;;
66546;SDS011;53400;50.364;14.874;2023-07-31T11:15:41;4.90;;;2.38;;
66546;SDS011;53400;50.364;14.874;2023-07-31T11:18:07;6.20;;;2.20;;
66546;SDS011;53400;50.364;14.874;2023-07-31T11:20:33;5.10;;;2.38;;
66546;SDS011;53400;50.364;14.874;2023-07-31T11:23:03;8.70;;;2.58;;
66546;SDS011;53400;50.364;14.874;2023-07-31T11:25:31;5.78;;;2.30;;
66546;SDS011;53400;50.364;14.874;2023-07-31T11:27:57;5.38;;;2.65;;
66546;SDS011;53400;50.364;14.874;2023-07-31T11:30:28;5.38;;;2.33;;
66546;SDS011;53400;50.364;14.874;2023-07-31T11:32:54;4.63;;;2.10;;
66546;SDS011;53400;50.364;14.874;2023-07-31T11:35:20;6.00;;;2.28;;
66546;SDS011;53400;50.364;14.874;2023-07-31T11:37:47;6.05;;;2.40;;
66546;SDS011;53400;50.364;14.874;2023-07-31T11:40:15;7.50;;;2.53;;
66546;SDS011;53400;50.364;14.874;2023-07-31T11:42:42;8.00;;;2.50;;
66546;SDS011;53400;50.364;14.874;2023-07-31T11:45:08;8.70;;;3.17;;
66546;SDS011;53400;50.364;14.874;2023-07-31T11:47:35;7.07;;;2.47;;
66546;SDS011;53400;50.364;14.874;2023-07-31T11:50:02;7.90;;;2.58;;
66546;SDS011;53400;50.364;14.874;2023-07-31T11:52:30;5.72;;;2.17;;
66546;SDS011;53400;50.364;14.874;2023-07-31T11:54:59;5.57;;;2.30;;
66546;SDS011;53400;50.364;14.874;2023-07-31T11:57:27;5.05;;;2.20;;
66546;SDS011;53400;50.364;14.874;2023-07-31T11:59:54;7.53;;;2.92;;
66546;SDS011;53400;50.364;14.874;2023-07-31T12:02:21;6.13;;;2.22;;
66546;SDS011;53400;50.364;14.874;2023-07-31T12:04:47;5.00;;;2.17;;
66546;SDS011;53400;50.364;14.874;2023-07-31T12:07:14;6.35;;;2.40;;
66546;SDS011;53400;50.364;14.874;2023-07-31T12:09:50;5.78;;;2.78;;
66546;SDS011;53400;50.364;14.874;2023-07-31T12:12:19;4.60;;;2.10;;
66546;SDS011;53400;50.364;14.874;2023-07-31T12:14:47;6.05;;;2.55;;
66546;SDS011;53400;50.364;14.874;2023-07-31T12:17:14;5.45;;;2.10;;
66546;SDS011;53400;50.364;14.874;2023-07-31T12:19:40;5.85;;;2.00;;
66546;SDS011;53400;50.364;14.874;2023-07-31T12:22:10;6.00;;;1.80;;
66546;SDS011;53400;50.364;14.874;2023-07-31T12:24:37;5.82;;;2.17;;
66546;SDS011;53400;50.364;14.874;2023-07-31T12:27:08;4.70;;;2.00;;
66546;SDS011;53400;50.364;14.874;2023-07-31T12:29:35;6.53;;;1.85;;
66546;SDS011;53400;50.364;14.874;2023-07-31T12:32:06;6.15;;;2.00;;
66546;SDS011;53400;50.364;14.874;2023-07-31T12:34:46;5.45;;;1.98;;
66546;SDS011;53400;50.364;14.874;2023-07-31T12:37:13;6.63;;;2.10;;
66546;SDS011;53400;50.364;14.874;2023-07-31T12:39:38;6.72;;;2.10;;
66546;SDS011;53400;50.364;14.874;2023-07-31T12:42:05;4.57;;;1.90;;
66546;SDS011;53400;50.364;14.874;2023-07-31T12:44:32;6.85;;;2.00;;
66546;SDS011;53400;50.364;14.874;2023-07-31T12:46:58;5.88;;;2.05;;
66546;SDS011;53400;50.364;14.874;2023-07-31T12:49:27;7.03;;;2.00;;
66546;SDS011;53400;50.364;14.874;2023-07-31T12:51:53;7.50;;;2.28;;
66546;SDS011;53400;50.364;14.874;2023-07-31T12:54:19;4.50;;;2.00;;
66546;SDS011;53400;50.364;14.874;2023-07-31T12:56:45;5.47;;;2.20;;
66546;SDS011;53400;50.364;14.874;2023-07-31T12:59:11;5.40;;;1.85;;
66546;SDS011;53400;50.364;14.874;2023-07-31T13:01:38;5.40;;;2.00;;
66546;SDS011;53400;50.364;14.874;2023-07-31T13:04:04;5.43;;;2.00;;
66546;SDS011;53400;50.364;14.874;2023-07-31T13:06:32;5.82;;;1.98;;
66546;SDS011;53400;50.364;14.874;2023-07-31T13:08:58;5.78;;;2.20;;
66546;SDS011;53400;50.364;14.874;2023-07-31T13:11:24;4.63;;;1.90;;
66546;SDS011;53400;50.364;14.874;2023-07-31T13:13:56;4.03;;;1.70;;
66546;SDS011;53400;50.364;14.874;2023-07-31T13:16:22;3.85;;;1.80;;
66546;SDS011;53400;50.364;14.874;2023-07-31T13:18:48;6.18;;;2.30;;
66546;SDS011;53400;50.364;14.874;2023-07-31T13:21:15;6.22;;;1.95;;
66546;SDS011;53400;50.364;14.874;2023-07-31T13:23:42;4.60;;;1.95;;
66546;SDS011;53400;50.364;14.874;2023-07-31T13:26:08;6.97;;;1.98;;
66546;SDS011;53400;50.364;14.874;2023-07-31T13:28:34;5.03;;;2.08;;
66546;SDS011;53400;50.364;14.874;2023-07-31T13:31:00;5.07;;;1.92;;
66546;SDS011;53400;50.364;14.874;2023-07-31T13:33:26;5.40;;;2.10;;
66546;SDS011;53400;50.364;14.874;2023-07-31T13:35:52;5.32;;;1.92;;
66546;SDS011;53400;50.364;14.874;2023-07-31T13:38:18;5.65;;;1.85;;
66546;SDS011;53400;50.364;14.874;2023-07-31T13:40:45;5.72;;;1.60;;
66546;SDS011;53400;50.364;14.874;2023-07-31T13:43:11;3.50;;;1.50;;
66546;SDS011;53400;50.364;14.874;2023-07-31T13:45:37;4.07;;;1.55;;
66546;SDS011;53400;50.364;14.874;2023-07-31T13:48:03;5.60;;;1.60;;
66546;SDS011;53400;50.364;14.874;2023-07-31T13:50:29;5.45;;;1.65;;
66546;SDS011;53400;50.364;14.874;2023-07-31T13:52:55;4.10;;;1.80;;
66546;SDS011;53400;50.364;14.874;2023-07-31T13:55:22;5.60;;;2.22;;
66546;SDS011;53400;50.364;14.874;2023-07-31T13:57:49;4.68;;;1.65;;
66546;SDS011;53400;50.364;14.874;2023-07-31T14:00:15;6.50;;;1.80;;
66546;SDS011;53400;50.364;14.874;2023-07-31T14:02:41;4.78;;;1.80;;
66546;SDS011;53400;50.364;14.874;2023-07-31T14:05:08;4.25;;;1.80;;
66546;SDS011;53400;50.364;14.874;2023-07-31T14:07:34;5.28;;;1.90;;
66546;SDS011;53400;50.364;14.874;2023-07-31T14:10:01;4.03;;;1.67;;
66546;SDS011;53400;50.364;14.874;2023-07-31T14:12:29;6.07;;;1.75;;
66546;SDS011;53400;50.364;14.874;2023-07-31T14:14:56;4.35;;;1.90;;
66546;SDS011;53400;50.364;14.874;2023-07-31T14:17:22;4.07;;;1.85;;
66546;SDS011;53400;50.364;14.874;2023-07-31T14:19:48;4.68;;;2.00;;
66546;SDS011;53400;50.364;14.874;2023-07-31T14:22:14;5.30;;;2.08;;
66546;SDS011;53400;50.364;14.874;2023-07-31T14:24:40;4.47;;;1.60;;
66546;SDS011;53400;50.364;14.874;2023-07-31T14:27:06;5.85;;;2.60;;
66546;SDS011;53400;50.364;14.874;2023-07-31T14:29:33;4.20;;;1.80;;
66546;SDS011;53400;50.364;14.874;2023-07-31T14:32:00;5.13;;;1.77;;
66546;SDS011;53400;50.364;14.874;2023-07-31T14:34:26;6.80;;;2.05;;